Briefing drone pour Trelissac

Rechercher une autre localisation

Conditions de vol :


Nous sommes le : Samedi 13 avril 2024
Il est 23:20 UTC (01:20 LT)

Lever de soleil : 04:47 UTC (06:47 LT)
Coucher de soleil : 19:06 UTC (21:06 LT)

Météo

L'essentiel des conditions de vol

VIGILANCE MÉTÉO FRANCE - Dordogne (24)
Pas de vigilances particulieres
CARTE TEMSI
CARTES DES FRONTS
METAR de LFBX
LFBX 122300Z AUTO 00000KT CAVOK 11/10 Q1029

Date d'émission: 12/04/2024
Heure d'émission: 23:00 UTC
Vent: Calme
Visibilité horizontale: > 10 km
Plafond : Plafond et visibilité OK (CAVOK)
Température: 11 °C
Point de rosée: 10 °C
Humidité: 94%
Pression (QNH): 1029 hPa
Prévision 24h pour Perigueux (3 km)
Vent : 317° pour 2 KT (5 km/h)
Temperature Maxi: 20 °C
Temperature Min: 20 °C
Humidité : 78%
Condition : Couvert


WEBCAM POUR TRELISSAC

Réglementation

Voler en sécurité

CARTES AERONAUTIQUE 1/500.000
CARTE AZBA (Reseau basse altitude)
CARTES VAC (LFBX)
SUP AIP




Chargement des AIP...
NOTAM (TRELISSAC + Terrain à proximité / FIR )




Chargement des NOTAMS...
CONTACT PREFECTURE 24
Dordogne (24) : [email protected]


Avertissement : Les données mises à disposition sont indicatives. Oxygène Drone ne pourra être tenu responsable de dégâts causés aux biens et aux personnes.